createdAt,value
2017-03-20T00:02:09.039Z,24.5
2017-03-20T00:07:09.992Z,24.6
2017-03-20T00:12:10.979Z,24.8
2017-03-20T00:17:12.140Z,24.8
2017-03-20T00:22:12.989Z,25
2017-03-20T00:27:13.961Z,25
2017-03-20T00:32:14.934Z,25.1
2017-03-20T00:37:15.881Z,25.1
2017-03-20T00:42:16.815Z,25
2017-03-20T00:47:17.745Z,24.8
2017-03-20T00:52:18.653Z,24.7
2017-03-20T00:57:19.606Z,24.6
2017-03-20T01:02:20.540Z,24.4
2017-03-20T01:07:21.512Z,24.3
2017-03-20T01:12:22.455Z,24.1
2017-03-20T01:17:23.386Z,24
2017-03-20T01:22:24.369Z,23.9
2017-03-20T01:27:25.335Z,23.8
2017-03-20T01:32:26.288Z,23.7
2017-03-20T01:37:27.282Z,23.6
2017-03-20T01:42:28.186Z,23.5
2017-03-20T01:47:29.158Z,23.5
2017-03-20T01:52:30.046Z,23.4
2017-03-20T01:57:30.988Z,23.3
2017-03-20T02:02:31.924Z,23.3
2017-03-20T02:07:32.852Z,23.2
2017-03-20T02:12:33.821Z,23.2
2017-03-20T02:17:34.856Z,23.1
2017-03-20T02:22:35.814Z,23.1
2017-03-20T02:27:36.775Z,23
2017-03-20T02:32:37.719Z,23
2017-03-20T02:37:38.662Z,23
2017-03-20T02:42:39.678Z,23
2017-03-20T02:47:40.683Z,23
2017-03-20T02:52:41.687Z,23
2017-03-20T02:57:42.634Z,23
2017-03-20T03:02:43.564Z,23
2017-03-20T03:07:44.584Z,22.9
2017-03-20T03:12:45.517Z,23
2017-03-20T03:17:46.454Z,23
2017-03-20T03:22:47.413Z,23.1
2017-03-20T03:27:48.374Z,23.2
2017-03-20T03:32:49.349Z,23.3
2017-03-20T03:37:50.338Z,23.4
2017-03-20T03:42:51.326Z,23.6
2017-03-20T03:47:52.270Z,23.7
2017-03-20T03:52:53.244Z,23.8
2017-03-20T03:57:54.169Z,23.9
2017-03-20T04:02:55.164Z,24
2017-03-20T04:07:56.104Z,24.1
2017-03-20T04:12:57.078Z,24.2
2017-03-20T04:17:58.185Z,24.3
2017-03-20T04:22:59.009Z,24.4
2017-03-20T04:27:59.964Z,24.5
2017-03-20T04:33:00.933Z,24.6
2017-03-20T04:38:01.903Z,24.7
2017-03-20T04:43:02.906Z,24.8
2017-03-20T04:48:03.853Z,24.8
2017-03-20T04:53:04.742Z,24.7
2017-03-20T04:58:05.737Z,24.6
2017-03-20T05:03:06.650Z,24.6
2017-03-20T05:08:07.632Z,24.5
2017-03-20T05:13:08.600Z,24.3
2017-03-20T05:18:09.551Z,24.2
2017-03-20T05:23:10.370Z,24
2017-03-20T05:28:11.341Z,23.8
2017-03-20T05:33:12.297Z,23.6
2017-03-20T05:38:13.276Z,23.5
2017-03-20T05:43:14.231Z,23.3
2017-03-20T05:48:15.166Z,23.2
2017-03-20T05:53:16.137Z,23
2017-03-20T05:58:17.094Z,23
2017-03-20T06:03:18.016Z,22.9
2017-03-20T06:08:18.935Z,22.8
2017-03-20T06:13:19.838Z,22.7
2017-03-20T06:18:20.810Z,22.6
2017-03-20T06:23:21.781Z,22.6
2017-03-20T06:28:22.739Z,22.5
2017-03-20T06:33:23.680Z,22.4
2017-03-20T06:38:24.631Z,22.5
2017-03-20T06:43:25.620Z,22.6
2017-03-20T06:48:26.573Z,22.8
2017-03-20T06:53:27.550Z,23
2017-03-20T06:58:28.463Z,23.1
2017-03-20T07:03:29.398Z,23.3
2017-03-20T07:08:30.348Z,23.5
2017-03-20T07:18:32.252Z,23.9
2017-03-20T07:23:33.256Z,24.2
2017-03-20T07:28:34.179Z,24.4
2017-03-20T07:33:35.134Z,24.7
2017-03-20T07:38:36.110Z,24.9
2017-03-20T07:43:37.152Z,25.1
2017-03-20T07:48:38.120Z,25.4
2017-03-20T07:53:39.089Z,25.6
2017-03-20T07:58:40.070Z,25.8
2017-03-20T08:03:41.094Z,26
2017-03-20T08:08:42.079Z,26.2
2017-03-20T08:13:43.044Z,26.4
2017-03-20T08:18:44.039Z,26.7
2017-03-20T08:23:45.069Z,26.8
2017-03-20T08:28:46.057Z,27
2017-03-20T08:33:47.012Z,27.3
2017-03-20T08:38:48.001Z,27.4
2017-03-20T08:43:48.970Z,27.6
2017-03-20T08:48:49.953Z,27.8
2017-03-20T08:53:50.878Z,27.9
2017-03-20T08:58:51.829Z,28
2017-03-20T09:03:52.810Z,28.1
2017-03-20T09:08:53.810Z,27.9
2017-03-20T09:13:54.712Z,27.8
2017-03-20T09:18:55.751Z,27.6
2017-03-20T09:23:56.764Z,27.4
2017-03-20T09:28:57.727Z,27.2
2017-03-20T09:33:58.677Z,27
2017-03-20T09:38:59.581Z,26.8
2017-03-20T09:44:00.594Z,26.7
2017-03-20T09:49:01.590Z,26.5
2017-03-20T09:54:02.566Z,26.4
2017-03-20T09:59:03.523Z,26.3
2017-03-20T10:04:04.541Z,26.3
2017-03-20T10:09:05.531Z,26.2
2017-03-20T10:14:06.527Z,26.2
2017-03-20T10:19:07.510Z,26.2
2017-03-20T10:24:08.500Z,26.2
2017-03-20T10:29:09.492Z,26.2
2017-03-20T10:34:10.477Z,26.2
2017-03-20T10:39:11.469Z,26.2
2017-03-20T10:44:12.487Z,26.2
2017-03-20T10:49:13.384Z,26.2
2017-03-20T10:54:14.314Z,26.3
2017-03-20T10:59:15.312Z,26.3
2017-03-20T11:04:16.308Z,26.3
2017-03-20T11:09:17.314Z,26.3
2017-03-20T11:14:18.249Z,26.4
2017-03-20T11:19:19.258Z,26.4
2017-03-20T11:24:20.222Z,26.5
2017-03-20T11:29:21.189Z,26.5
2017-03-20T11:34:22.171Z,26.5
2017-03-20T11:39:23.064Z,26.5
2017-03-20T11:44:24.055Z,26.5
2017-03-20T11:49:25.002Z,26.5
2017-03-20T11:54:25.979Z,26.5
2017-03-20T11:59:26.949Z,26.4
2017-03-20T12:04:27.920Z,26.5
2017-03-20T12:09:28.947Z,26.5
2017-03-20T12:14:29.999Z,26.5
2017-03-20T12:19:30.939Z,26.5
2017-03-20T12:24:31.903Z,26.5
2017-03-20T12:29:32.878Z,26.5
2017-03-20T12:34:33.840Z,26.5
2017-03-20T12:39:34.806Z,26.5
2017-03-20T12:44:35.770Z,26.5
2017-03-20T12:49:36.734Z,26.5
2017-03-20T12:54:37.707Z,26.5
2017-03-20T12:59:38.678Z,26.5
2017-03-20T13:04:39.643Z,26.6
2017-03-20T13:09:40.621Z,26.6
2017-03-20T13:14:41.623Z,26.6
2017-03-20T13:19:42.532Z,26.6
2017-03-20T13:24:43.438Z,26.6
2017-03-20T13:29:44.407Z,26.5
2017-03-20T13:34:45.379Z,26.5
2017-03-20T13:39:46.349Z,26.5
2017-03-20T13:44:47.308Z,26.5
2017-03-20T13:49:48.275Z,26.5
2017-03-20T13:54:49.253Z,26.5
2017-03-20T13:59:50.150Z,26.5
2017-03-20T14:04:51.132Z,26.5
2017-03-20T14:09:52.099Z,26.5
2017-03-20T14:14:53.071Z,26.5
2017-03-20T14:19:54.045Z,26.5
2017-03-20T14:24:54.931Z,26.4
2017-03-20T14:29:55.893Z,26.4
2017-03-20T14:34:56.846Z,26.4
2017-03-20T14:39:57.797Z,26.4
2017-03-20T14:44:58.748Z,26.4
2017-03-20T14:49:59.690Z,26.3
2017-03-20T14:55:00.624Z,26.3
2017-03-20T15:00:01.565Z,26.3
2017-03-20T15:05:02.498Z,26.3
2017-03-20T15:10:03.494Z,26.3
2017-03-20T15:15:04.428Z,26.3
2017-03-20T15:20:05.368Z,26.3
2017-03-20T15:25:06.311Z,26.3
2017-03-20T15:30:07.239Z,26.3
2017-03-20T15:35:08.247Z,26.3
2017-03-20T15:40:09.278Z,26.3
2017-03-20T15:45:10.100Z,26.3
2017-03-20T15:50:11.172Z,26.2
2017-03-20T15:55:12.081Z,26.2
2017-03-20T16:00:13.060Z,26.1
2017-03-20T16:05:13.980Z,26.1
2017-03-20T16:10:14.966Z,26.1
2017-03-20T16:15:15.929Z,26.1
2017-03-20T16:20:16.895Z,26
2017-03-20T16:25:17.852Z,26
2017-03-20T16:30:18.831Z,26
2017-03-20T16:35:19.861Z,25.9
2017-03-20T16:40:20.761Z,26
2017-03-20T16:45:21.711Z,25.9
2017-03-20T16:50:22.643Z,25.9
2017-03-20T16:55:23.579Z,25.8
2017-03-20T17:00:24.573Z,25.8
2017-03-20T17:05:25.563Z,25.8
2017-03-20T17:10:26.498Z,25.8
2017-03-20T17:15:27.416Z,25.8
2017-03-20T17:20:28.376Z,25.4
2017-03-20T17:25:29.301Z,25
2017-03-20T17:30:30.233Z,24.7
2017-03-20T17:35:31.195Z,24.4
2017-03-20T17:40:32.171Z,24.2
2017-03-20T17:45:33.126Z,23.9
2017-03-20T17:50:34.039Z,23.8
2017-03-20T17:55:34.993Z,23.6
2017-03-20T18:00:35.946Z,23.5
2017-03-20T18:05:36.895Z,23.4
2017-03-20T18:10:37.847Z,23.2
2017-03-20T18:15:38.786Z,23.1
2017-03-20T18:20:39.752Z,23
2017-03-20T18:25:40.701Z,22.9
2017-03-20T18:30:41.640Z,22.9
2017-03-20T18:35:42.648Z,22.8
2017-03-20T18:40:43.672Z,22.7
2017-03-20T18:45:44.636Z,22.7
2017-03-20T18:50:45.526Z,22.6
2017-03-20T18:55:46.500Z,22.5
2017-03-20T19:00:47.456Z,22.5
2017-03-20T19:05:48.463Z,22.4
2017-03-20T19:10:49.393Z,22.4
2017-03-20T19:15:50.386Z,22.3
2017-03-20T19:20:51.328Z,22.3
2017-03-20T19:25:52.253Z,22.2
2017-03-20T19:30:53.228Z,22.2
2017-03-20T19:35:54.135Z,22.1
2017-03-20T19:40:55.095Z,22
2017-03-20T19:45:56.019Z,21.8
2017-03-20T19:50:56.911Z,21.4
2017-03-20T19:55:57.935Z,21.2
2017-03-20T20:00:58.821Z,21
2017-03-20T20:05:59.764Z,20.8
2017-03-20T20:11:00.733Z,20.6
2017-03-20T20:16:01.697Z,20.5
2017-03-20T20:21:02.623Z,20.4
2017-03-20T20:26:03.609Z,20.4
2017-03-20T20:31:04.594Z,20.5
2017-03-20T20:36:05.577Z,20.5
2017-03-20T20:41:06.576Z,20.6
2017-03-20T20:46:07.592Z,20.8
2017-03-20T20:51:08.617Z,20.9
2017-03-20T20:56:09.709Z,21.1
2017-03-20T21:01:10.542Z,21.3
2017-03-20T21:06:11.504Z,21.4
2017-03-20T21:11:12.500Z,21.5
2017-03-20T21:16:13.441Z,21.7
2017-03-20T21:21:14.472Z,21.7
2017-03-20T21:26:15.437Z,21.7
2017-03-20T21:31:16.466Z,21.6
2017-03-20T21:36:17.418Z,21.4
2017-03-20T21:41:18.416Z,21.3
2017-03-20T21:46:19.398Z,21.1
2017-03-20T21:51:20.348Z,21
2017-03-20T21:56:21.346Z,20.8
2017-03-20T22:01:22.334Z,20.7
2017-03-20T22:06:23.294Z,20.6
2017-03-20T22:11:24.232Z,20.5
2017-03-20T22:16:25.223Z,20.4
2017-03-20T22:21:26.139Z,20.3
2017-03-20T22:26:27.116Z,20.2
2017-03-20T22:31:28.050Z,20.1
2017-03-20T22:36:28.990Z,20
2017-03-20T22:41:29.914Z,20
2017-03-20T22:46:30.838Z,19.9
2017-03-20T22:51:31.812Z,19.8
2017-03-20T22:56:32.772Z,19.8
2017-03-20T23:01:33.724Z,19.7
2017-03-20T23:06:34.748Z,19.7
2017-03-20T23:11:35.675Z,19.6
2017-03-20T23:16:36.681Z,19.5
2017-03-20T23:21:37.666Z,19.5
2017-03-20T23:26:38.651Z,19.4
2017-03-20T23:31:39.615Z,19.4
2017-03-20T23:36:40.589Z,19.3
2017-03-20T23:41:41.540Z,19.3
2017-03-20T23:46:42.498Z,19.2
2017-03-20T23:51:43.448Z,19.2
2017-03-20T23:56:44.456Z,19.2
